sensor_id;sensor_type;location;lat;lon;timestamp;P1;durP1;ratioP1;P2;durP2;ratioP2
35205;SDS011;46555;45.620;13.796;2022-07-23T00:02:24;20.83;;;18.08;;
35205;SDS011;46555;45.620;13.796;2022-07-23T00:04:50;23.13;;;19.20;;
35205;SDS011;46555;45.620;13.796;2022-07-23T00:07:16;22.98;;;19.02;;
35205;SDS011;46555;45.620;13.796;2022-07-23T00:09:42;21.23;;;18.77;;
35205;SDS011;46555;45.620;13.796;2022-07-23T00:12:07;25.52;;;19.65;;
35205;SDS011;46555;45.620;13.796;2022-07-23T00:14:33;22.05;;;19.48;;
35205;SDS011;46555;45.620;13.796;2022-07-23T00:16:59;24.35;;;18.70;;
35205;SDS011;46555;45.620;13.796;2022-07-23T00:19:25;27.67;;;20.27;;
35205;SDS011;46555;45.620;13.796;2022-07-23T00:21:50;23.00;;;20.48;;
35205;SDS011;46555;45.620;13.796;2022-07-23T00:24:16;22.63;;;19.75;;
35205;SDS011;46555;45.620;13.796;2022-07-23T00:26:41;24.05;;;19.30;;
35205;SDS011;46555;45.620;13.796;2022-07-23T00:29:07;21.10;;;18.75;;
35205;SDS011;46555;45.620;13.796;2022-07-23T00:31:33;22.30;;;18.67;;
35205;SDS011;46555;45.620;13.796;2022-07-23T00:33:59;22.08;;;19.00;;
35205;SDS011;46555;45.620;13.796;2022-07-23T00:36:26;24.17;;;18.63;;
35205;SDS011;46555;45.620;13.796;2022-07-23T00:38:52;20.95;;;18.80;;
35205;SDS011;46555;45.620;13.796;2022-07-23T00:41:18;20.63;;;18.33;;
35205;SDS011;46555;45.620;13.796;2022-07-23T00:43:44;22.10;;;19.20;;
35205;SDS011;46555;45.620;13.796;2022-07-23T00:46:09;22.58;;;18.00;;
35205;SDS011;46555;45.620;13.796;2022-07-23T00:48:35;21.65;;;18.02;;
35205;SDS011;46555;45.620;13.796;2022-07-23T00:51:01;19.55;;;17.17;;
35205;SDS011;46555;45.620;13.796;2022-07-23T00:53:27;21.30;;;18.23;;
35205;SDS011;46555;45.620;13.796;2022-07-23T00:55:54;23.33;;;18.88;;
35205;SDS011;46555;45.620;13.796;2022-07-23T00:58:20;21.58;;;18.65;;
35205;SDS011;46555;45.620;13.796;2022-07-23T01:00:46;24.05;;;18.45;;
35205;SDS011;46555;45.620;13.796;2022-07-23T01:03:11;21.92;;;18.42;;
35205;SDS011;46555;45.620;13.796;2022-07-23T01:05:37;21.40;;;18.17;;
35205;SDS011;46555;45.620;13.796;2022-07-23T01:08:03;22.40;;;18.30;;
35205;SDS011;46555;45.620;13.796;2022-07-23T01:10:31;19.33;;;17.33;;
35205;SDS011;46555;45.620;13.796;2022-07-23T01:12:57;24.85;;;17.63;;
35205;SDS011;46555;45.620;13.796;2022-07-23T01:15:24;20.55;;;17.88;;
35205;SDS011;46555;45.620;13.796;2022-07-23T01:17:50;20.42;;;18.33;;
35205;SDS011;46555;45.620;13.796;2022-07-23T01:20:16;23.27;;;18.60;;
35205;SDS011;46555;45.620;13.796;2022-07-23T01:22:42;26.70;;;18.55;;
35205;SDS011;46555;45.620;13.796;2022-07-23T01:25:08;22.33;;;17.88;;
35205;SDS011;46555;45.620;13.796;2022-07-23T01:27:34;23.17;;;18.08;;
35205;SDS011;46555;45.620;13.796;2022-07-23T01:30:00;21.33;;;17.55;;
35205;SDS011;46555;45.620;13.796;2022-07-23T01:32:27;20.17;;;17.58;;
35205;SDS011;46555;45.620;13.796;2022-07-23T01:34:53;21.00;;;17.08;;
35205;SDS011;46555;45.620;13.796;2022-07-23T01:37:18;19.63;;;17.48;;
35205;SDS011;46555;45.620;13.796;2022-07-23T01:39:44;21.60;;;18.05;;
35205;SDS011;46555;45.620;13.796;2022-07-23T01:42:10;24.33;;;18.52;;
35205;SDS011;46555;45.620;13.796;2022-07-23T01:44:35;23.38;;;18.40;;
35205;SDS011;46555;45.620;13.796;2022-07-23T01:47:01;21.05;;;17.83;;
35205;SDS011;46555;45.620;13.796;2022-07-23T01:49:27;21.92;;;18.35;;
35205;SDS011;46555;45.620;13.796;2022-07-23T01:51:53;20.70;;;18.13;;
35205;SDS011;46555;45.620;13.796;2022-07-23T01:54:29;20.35;;;18.25;;
35205;SDS011;46555;45.620;13.796;2022-07-23T01:56:56;19.90;;;17.95;;
35205;SDS011;46555;45.620;13.796;2022-07-23T01:59:22;21.45;;;17.52;;
35205;SDS011;46555;45.620;13.796;2022-07-23T02:01:48;24.77;;;19.15;;
35205;SDS011;46555;45.620;13.796;2022-07-23T02:04:16;22.50;;;18.35;;
35205;SDS011;46555;45.620;13.796;2022-07-23T02:06:42;21.48;;;18.42;;
35205;SDS011;46555;45.620;13.796;2022-07-23T02:09:08;26.27;;;18.00;;
35205;SDS011;46555;45.620;13.796;2022-07-23T02:11:34;20.80;;;18.55;;
35205;SDS011;46555;45.620;13.796;2022-07-23T02:13:59;19.45;;;17.38;;
35205;SDS011;46555;45.620;13.796;2022-07-23T02:16:25;22.83;;;18.27;;
35205;SDS011;46555;45.620;13.796;2022-07-23T02:18:52;21.52;;;19.02;;
35205;SDS011;46555;45.620;13.796;2022-07-23T02:21:18;21.05;;;18.92;;
35205;SDS011;46555;45.620;13.796;2022-07-23T02:23:44;24.27;;;18.77;;
35205;SDS011;46555;45.620;13.796;2022-07-23T02:26:10;23.27;;;18.00;;
35205;SDS011;46555;45.620;13.796;2022-07-23T02:28:35;25.75;;;19.00;;
35205;SDS011;46555;45.620;13.796;2022-07-23T02:31:01;20.10;;;17.88;;
35205;SDS011;46555;45.620;13.796;2022-07-23T02:33:28;20.33;;;18.25;;
35205;SDS011;46555;45.620;13.796;2022-07-23T02:35:54;21.98;;;18.58;;
35205;SDS011;46555;45.620;13.796;2022-07-23T02:38:20;22.25;;;18.77;;
35205;SDS011;46555;45.620;13.796;2022-07-23T02:40:49;22.05;;;18.58;;
35205;SDS011;46555;45.620;13.796;2022-07-23T02:43:14;21.65;;;19.42;;
35205;SDS011;46555;45.620;13.796;2022-07-23T02:45:43;22.25;;;18.98;;
35205;SDS011;46555;45.620;13.796;2022-07-23T02:48:09;19.95;;;17.77;;
35205;SDS011;46555;45.620;13.796;2022-07-23T02:50:37;23.52;;;19.02;;
35205;SDS011;46555;45.620;13.796;2022-07-23T02:53:03;22.73;;;18.48;;
35205;SDS011;46555;45.620;13.796;2022-07-23T02:55:29;28.70;;;18.38;;
35205;SDS011;46555;45.620;13.796;2022-07-23T02:57:56;22.98;;;16.92;;
35205;SDS011;46555;45.620;13.796;2022-07-23T03:00:22;20.70;;;18.52;;
35205;SDS011;46555;45.620;13.796;2022-07-23T03:02:48;20.88;;;16.60;;
35205;SDS011;46555;45.620;13.796;2022-07-23T03:05:13;20.00;;;17.58;;
35205;SDS011;46555;45.620;13.796;2022-07-23T03:07:39;19.90;;;17.48;;
35205;SDS011;46555;45.620;13.796;2022-07-23T03:10:05;20.70;;;16.77;;
35205;SDS011;46555;45.620;13.796;2022-07-23T03:12:31;19.63;;;17.48;;
35205;SDS011;46555;45.620;13.796;2022-07-23T03:14:56;23.25;;;17.92;;
35205;SDS011;46555;45.620;13.796;2022-07-23T03:17:22;18.95;;;16.98;;
35205;SDS011;46555;45.620;13.796;2022-07-23T03:19:48;22.67;;;17.13;;
35205;SDS011;46555;45.620;13.796;2022-07-23T03:22:14;22.33;;;17.45;;
35205;SDS011;46555;45.620;13.796;2022-07-23T03:24:39;19.02;;;17.05;;
35205;SDS011;46555;45.620;13.796;2022-07-23T03:27:24;19.08;;;17.08;;
35205;SDS011;46555;45.620;13.796;2022-07-23T03:29:51;19.65;;;17.23;;
35205;SDS011;46555;45.620;13.796;2022-07-23T03:32:19;18.60;;;16.48;;
35205;SDS011;46555;45.620;13.796;2022-07-23T03:34:45;19.50;;;16.85;;
35205;SDS011;46555;45.620;13.796;2022-07-23T03:37:11;18.83;;;16.38;;
35205;SDS011;46555;45.620;13.796;2022-07-23T03:39:37;20.63;;;17.25;;
35205;SDS011;46555;45.620;13.796;2022-07-23T03:42:03;20.52;;;17.58;;
35205;SDS011;46555;45.620;13.796;2022-07-23T03:44:28;21.23;;;16.83;;
35205;SDS011;46555;45.620;13.796;2022-07-23T03:46:54;18.92;;;16.20;;
35205;SDS011;46555;45.620;13.796;2022-07-23T03:49:20;19.08;;;17.02;;
35205;SDS011;46555;45.620;13.796;2022-07-23T03:51:48;18.75;;;16.85;;
35205;SDS011;46555;45.620;13.796;2022-07-23T03:54:14;19.40;;;17.27;;
35205;SDS011;46555;45.620;13.796;2022-07-23T03:56:40;19.58;;;17.58;;
35205;SDS011;46555;45.620;13.796;2022-07-23T03:59:06;23.75;;;17.98;;
35205;SDS011;46555;45.620;13.796;2022-07-23T04:01:31;20.52;;;18.33;;
35205;SDS011;46555;45.620;13.796;2022-07-23T04:03:57;21.20;;;18.02;;
35205;SDS011;46555;45.620;13.796;2022-07-23T04:06:23;23.20;;;18.52;;
35205;SDS011;46555;45.620;13.796;2022-07-23T04:08:48;22.30;;;19.98;;
35205;SDS011;46555;45.620;13.796;2022-07-23T04:11:14;24.20;;;20.17;;
35205;SDS011;46555;45.620;13.796;2022-07-23T04:13:40;22.75;;;19.80;;
35205;SDS011;46555;45.620;13.796;2022-07-23T04:16:06;22.38;;;20.08;;
35205;SDS011;46555;45.620;13.796;2022-07-23T04:18:31;24.48;;;20.70;;
35205;SDS011;46555;45.620;13.796;2022-07-23T04:20:57;24.30;;;21.15;;
35205;SDS011;46555;45.620;13.796;2022-07-23T04:23:23;30.98;;;21.63;;
35205;SDS011;46555;45.620;13.796;2022-07-23T04:25:48;24.60;;;21.88;;
35205;SDS011;46555;45.620;13.796;2022-07-23T04:28:14;28.60;;;22.33;;
35205;SDS011;46555;45.620;13.796;2022-07-23T04:30:40;25.38;;;21.65;;
35205;SDS011;46555;45.620;13.796;2022-07-23T04:33:06;27.17;;;21.83;;
35205;SDS011;46555;45.620;13.796;2022-07-23T04:35:32;25.35;;;21.35;;
35205;SDS011;46555;45.620;13.796;2022-07-23T04:38:01;24.70;;;22.08;;
35205;SDS011;46555;45.620;13.796;2022-07-23T04:40:28;25.77;;;21.88;;
35205;SDS011;46555;45.620;13.796;2022-07-23T04:42:53;28.52;;;22.10;;
35205;SDS011;46555;45.620;13.796;2022-07-23T04:45:22;23.65;;;20.77;;
35205;SDS011;46555;45.620;13.796;2022-07-23T04:47:50;21.58;;;19.35;;
35205;SDS011;46555;45.620;13.796;2022-07-23T04:50:16;29.52;;;20.95;;
35205;SDS011;46555;45.620;13.796;2022-07-23T04:52:43;25.50;;;19.73;;
35205;SDS011;46555;45.620;13.796;2022-07-23T04:55:09;21.98;;;19.65;;
35205;SDS011;46555;45.620;13.796;2022-07-23T04:57:35;23.80;;;20.80;;
35205;SDS011;46555;45.620;13.796;2022-07-23T05:00:01;24.02;;;21.02;;
35205;SDS011;46555;45.620;13.796;2022-07-23T05:02:28;26.73;;;20.30;;
35205;SDS011;46555;45.620;13.796;2022-07-23T05:04:54;24.20;;;19.85;;
35205;SDS011;46555;45.620;13.796;2022-07-23T05:07:23;23.42;;;20.38;;
35205;SDS011;46555;45.620;13.796;2022-07-23T05:09:49;21.50;;;19.20;;
35205;SDS011;46555;45.620;13.796;2022-07-23T05:12:15;24.52;;;21.10;;
35205;SDS011;46555;45.620;13.796;2022-07-23T05:14:40;23.58;;;19.85;;
35205;SDS011;46555;45.620;13.796;2022-07-23T05:17:06;22.58;;;20.05;;
35205;SDS011;46555;45.620;13.796;2022-07-23T05:19:33;30.83;;;20.83;;
35205;SDS011;46555;45.620;13.796;2022-07-23T05:21:59;23.35;;;20.23;;
35205;SDS011;46555;45.620;13.796;2022-07-23T05:24:25;23.52;;;20.27;;
35205;SDS011;46555;45.620;13.796;2022-07-23T05:26:54;22.45;;;19.55;;
35205;SDS011;46555;45.620;13.796;2022-07-23T05:29:19;25.02;;;19.05;;
35205;SDS011;46555;45.620;13.796;2022-07-23T05:31:45;22.25;;;19.85;;
35205;SDS011;46555;45.620;13.796;2022-07-23T05:34:11;20.77;;;18.67;;
35205;SDS011;46555;45.620;13.796;2022-07-23T05:36:39;23.85;;;18.98;;
35205;SDS011;46555;45.620;13.796;2022-07-23T05:39:05;23.30;;;19.05;;
35205;SDS011;46555;45.620;13.796;2022-07-23T05:41:30;22.08;;;19.63;;
35205;SDS011;46555;45.620;13.796;2022-07-23T05:43:59;32.50;;;19.63;;
35205;SDS011;46555;45.620;13.796;2022-07-23T05:46:25;21.25;;;19.13;;
35205;SDS011;46555;45.620;13.796;2022-07-23T05:48:51;26.70;;;19.00;;
35205;SDS011;46555;45.620;13.796;2022-07-23T05:51:20;23.55;;;19.38;;
35205;SDS011;46555;45.620;13.796;2022-07-23T05:53:47;20.98;;;18.75;;
35205;SDS011;46555;45.620;13.796;2022-07-23T05:56:13;23.10;;;18.90;;
35205;SDS011;46555;45.620;13.796;2022-07-23T05:58:38;20.75;;;18.58;;
35205;SDS011;46555;45.620;13.796;2022-07-23T06:01:04;21.20;;;18.88;;
35205;SDS011;46555;45.620;13.796;2022-07-23T06:03:30;20.60;;;18.42;;
35205;SDS011;46555;45.620;13.796;2022-07-23T06:05:56;21.05;;;18.67;;
35205;SDS011;46555;45.620;13.796;2022-07-23T06:08:21;24.88;;;19.30;;
35205;SDS011;46555;45.620;13.796;2022-07-23T06:10:47;22.60;;;18.77;;
35205;SDS011;46555;45.620;13.796;2022-07-23T06:13:13;27.42;;;19.38;;
35205;SDS011;46555;45.620;13.796;2022-07-23T06:15:39;23.70;;;19.08;;
35205;SDS011;46555;45.620;13.796;2022-07-23T06:18:05;27.38;;;18.83;;
35205;SDS011;46555;45.620;13.796;2022-07-23T06:20:30;22.95;;;18.85;;
35205;SDS011;46555;45.620;13.796;2022-07-23T06:22:56;26.40;;;18.77;;
35205;SDS011;46555;45.620;13.796;2022-07-23T06:25:22;23.90;;;20.48;;
35205;SDS011;46555;45.620;13.796;2022-07-23T06:27:48;28.48;;;20.10;;
35205;SDS011;46555;45.620;13.796;2022-07-23T06:30:14;22.23;;;19.83;;
35205;SDS011;46555;45.620;13.796;2022-07-23T06:32:42;21.60;;;19.35;;
35205;SDS011;46555;45.620;13.796;2022-07-23T06:35:08;23.80;;;20.27;;
35205;SDS011;46555;45.620;13.796;2022-07-23T06:37:34;25.25;;;20.27;;
35205;SDS011;46555;45.620;13.796;2022-07-23T06:40:00;25.25;;;19.80;;
35205;SDS011;46555;45.620;13.796;2022-07-23T06:42:26;23.58;;;19.17;;
35205;SDS011;46555;45.620;13.796;2022-07-23T06:44:52;27.20;;;20.50;;
35205;SDS011;46555;45.620;13.796;2022-07-23T06:47:18;25.42;;;21.27;;
35205;SDS011;46555;45.620;13.796;2022-07-23T06:49:44;26.58;;;20.70;;
35205;SDS011;46555;45.620;13.796;2022-07-23T06:52:10;27.23;;;21.27;;
35205;SDS011;46555;45.620;13.796;2022-07-23T06:54:36;43.47;;;23.05;;
35205;SDS011;46555;45.620;13.796;2022-07-23T06:57:01;38.42;;;23.23;;
35205;SDS011;46555;45.620;13.796;2022-07-23T06:59:27;29.77;;;23.13;;
35205;SDS011;46555;45.620;13.796;2022-07-23T07:01:53;35.63;;;23.10;;
35205;SDS011;46555;45.620;13.796;2022-07-23T07:04:19;28.63;;;22.77;;
35205;SDS011;46555;45.620;13.796;2022-07-23T07:06:44;35.97;;;24.05;;
35205;SDS011;46555;45.620;13.796;2022-07-23T07:09:10;45.83;;;27.40;;
35205;SDS011;46555;45.620;13.796;2022-07-23T07:11:36;31.40;;;26.15;;
35205;SDS011;46555;45.620;13.796;2022-07-23T07:14:01;33.80;;;26.77;;
35205;SDS011;46555;45.620;13.796;2022-07-23T07:16:29;31.48;;;26.27;;
35205;SDS011;46555;45.620;13.796;2022-07-23T07:18:54;33.22;;;25.45;;
35205;SDS011;46555;45.620;13.796;2022-07-23T07:21:20;33.35;;;25.17;;
35205;SDS011;46555;45.620;13.796;2022-07-23T07:23:46;30.63;;;25.23;;
35205;SDS011;46555;45.620;13.796;2022-07-23T07:26:11;40.45;;;24.85;;
35205;SDS011;46555;45.620;13.796;2022-07-23T07:28:37;31.55;;;25.55;;
35205;SDS011;46555;45.620;13.796;2022-07-23T07:31:03;30.73;;;26.17;;
35205;SDS011;46555;45.620;13.796;2022-07-23T07:33:29;27.80;;;24.90;;
35205;SDS011;46555;45.620;13.796;2022-07-23T07:35:55;28.40;;;23.13;;
35205;SDS011;46555;45.620;13.796;2022-07-23T07:38:20;31.92;;;25.13;;
35205;SDS011;46555;45.620;13.796;2022-07-23T07:40:46;31.40;;;24.90;;
35205;SDS011;46555;45.620;13.796;2022-07-23T07:43:12;32.70;;;24.55;;
35205;SDS011;46555;45.620;13.796;2022-07-23T07:45:38;31.30;;;24.17;;
35205;SDS011;46555;45.620;13.796;2022-07-23T07:48:03;33.20;;;24.08;;
35205;SDS011;46555;45.620;13.796;2022-07-23T07:50:30;31.33;;;23.33;;
35205;SDS011;46555;45.620;13.796;2022-07-23T07:52:55;31.55;;;24.17;;
35205;SDS011;46555;45.620;13.796;2022-07-23T07:55:21;33.13;;;23.98;;
35205;SDS011;46555;45.620;13.796;2022-07-23T07:57:47;30.05;;;24.50;;
35205;SDS011;46555;45.620;13.796;2022-07-23T08:00:13;30.90;;;25.08;;
35205;SDS011;46555;45.620;13.796;2022-07-23T08:02:49;28.40;;;25.23;;
35205;SDS011;46555;45.620;13.796;2022-07-23T08:05:25;27.45;;;23.92;;
35205;SDS011;46555;45.620;13.796;2022-07-23T08:07:52;30.23;;;23.25;;
35205;SDS011;46555;45.620;13.796;2022-07-23T08:10:18;31.30;;;23.90;;
35205;SDS011;46555;45.620;13.796;2022-07-23T08:12:48;27.02;;;21.50;;
35205;SDS011;46555;45.620;13.796;2022-07-23T08:15:16;23.48;;;21.00;;
35205;SDS011;46555;45.620;13.796;2022-07-23T08:17:43;24.63;;;19.02;;
35205;SDS011;46555;45.620;13.796;2022-07-23T08:20:10;23.80;;;19.70;;
35205;SDS011;46555;45.620;13.796;2022-07-23T08:22:44;25.13;;;18.80;;
35205;SDS011;46555;45.620;13.796;2022-07-23T08:25:10;24.92;;;16.83;;
35205;SDS011;46555;45.620;13.796;2022-07-23T08:27:36;24.30;;;18.67;;
35205;SDS011;46555;45.620;13.796;2022-07-23T08:30:02;28.35;;;20.23;;
35205;SDS011;46555;45.620;13.796;2022-07-23T08:32:28;22.90;;;18.60;;
35205;SDS011;46555;45.620;13.796;2022-07-23T08:34:54;20.63;;;17.98;;
35205;SDS011;46555;45.620;13.796;2022-07-23T08:37:19;28.00;;;20.08;;
35205;SDS011;46555;45.620;13.796;2022-07-23T08:39:45;24.67;;;17.60;;
35205;SDS011;46555;45.620;13.796;2022-07-23T08:42:11;19.20;;;17.05;;
35205;SDS011;46555;45.620;13.796;2022-07-23T08:44:39;23.35;;;17.17;;
35205;SDS011;46555;45.620;13.796;2022-07-23T08:47:09;21.40;;;17.50;;
35205;SDS011;46555;45.620;13.796;2022-07-23T08:49:36;36.47;;;17.20;;
35205;SDS011;46555;45.620;13.796;2022-07-23T08:52:03;22.75;;;17.08;;
35205;SDS011;46555;45.620;13.796;2022-07-23T08:54:29;18.73;;;16.75;;
35205;SDS011;46555;45.620;13.796;2022-07-23T08:56:56;19.90;;;17.27;;
35205;SDS011;46555;45.620;13.796;2022-07-23T08:59:21;28.48;;;16.27;;
35205;SDS011;46555;45.620;13.796;2022-07-23T09:01:47;18.33;;;15.35;;
35205;SDS011;46555;45.620;13.796;2022-07-23T09:04:13;19.02;;;15.40;;
35205;SDS011;46555;45.620;13.796;2022-07-23T09:06:39;16.08;;;14.15;;
35205;SDS011;46555;45.620;13.796;2022-07-23T09:09:20;23.05;;;13.80;;
35205;SDS011;46555;45.620;13.796;2022-07-23T09:11:47;23.73;;;14.27;;
35205;SDS011;46555;45.620;13.796;2022-07-23T09:14:13;21.38;;;13.90;;
35205;SDS011;46555;45.620;13.796;2022-07-23T09:16:39;15.40;;;13.80;;
35205;SDS011;46555;45.620;13.796;2022-07-23T09:19:06;18.33;;;13.07;;
35205;SDS011;46555;45.620;13.796;2022-07-23T09:21:33;20.63;;;13.75;;
35205;SDS011;46555;45.620;13.796;2022-07-23T09:24:03;17.90;;;12.52;;
35205;SDS011;46555;45.620;13.796;2022-07-23T09:34:13;19.85;;;14.95;;
35205;SDS011;46555;45.620;13.796;2022-07-23T09:36:43;21.85;;;15.95;;
35205;SDS011;46555;45.620;13.796;2022-07-23T09:39:09;25.70;;;15.07;;
35205;SDS011;46555;45.620;13.796;2022-07-23T09:41:37;18.90;;;14.88;;
35205;SDS011;46555;45.620;13.796;2022-07-23T09:44:09;22.52;;;15.10;;
35205;SDS011;46555;45.620;13.796;2022-07-23T09:46:36;20.35;;;14.70;;
35205;SDS011;46555;45.620;13.796;2022-07-23T09:49:12;19.50;;;14.32;;
35205;SDS011;46555;45.620;13.796;2022-07-23T09:51:45;19.75;;;14.05;;
35205;SDS011;46555;45.620;13.796;2022-07-23T09:54:20;23.58;;;14.38;;
35205;SDS011;46555;45.620;13.796;2022-07-23T09:56:51;19.45;;;13.82;;
35205;SDS011;46555;45.620;13.796;2022-07-23T09:59:28;17.10;;;13.43;;
35205;SDS011;46555;45.620;13.796;2022-07-23T10:01:56;26.58;;;14.30;;
35205;SDS011;46555;45.620;13.796;2022-07-23T10:04:24;16.38;;;12.70;;
35205;SDS011;46555;45.620;13.796;2022-07-23T10:06:53;15.45;;;13.13;;
35205;SDS011;46555;45.620;13.796;2022-07-23T10:09:29;18.98;;;13.90;;
35205;SDS011;46555;45.620;13.796;2022-07-23T10:12:02;15.05;;;13.13;;
35205;SDS011;46555;45.620;13.796;2022-07-23T10:14:47;18.23;;;12.63;;
35205;SDS011;46555;45.620;13.796;2022-07-23T10:17:14;18.60;;;11.85;;
35205;SDS011;46555;45.620;13.796;2022-07-23T10:19:40;12.68;;;11.40;;
35205;SDS011;46555;45.620;13.796;2022-07-23T10:22:08;12.90;;;10.90;;
35205;SDS011;46555;45.620;13.796;2022-07-23T10:33:53;13.30;;;10.35;;
35205;SDS011;46555;45.620;13.796;2022-07-23T10:36:29;15.90;;;13.77;;
35205;SDS011;46555;45.620;13.796;2022-07-23T10:39:05;13.95;;;12.55;;
35205;SDS011;46555;45.620;13.796;2022-07-23T10:41:34;16.60;;;10.43;;
35205;SDS011;46555;45.620;13.796;2022-07-23T10:44:11;11.88;;;10.35;;
35205;SDS011;46555;45.620;13.796;2022-07-23T10:49:31;14.95;;;11.27;;
35205;SDS011;46555;45.620;13.796;2022-07-23T10:54:39;13.00;;;9.32;;
35205;SDS011;46555;45.620;13.796;2022-07-23T10:57:06;21.52;;;10.23;;
35205;SDS011;46555;45.620;13.796;2022-07-23T11:02:29;15.32;;;11.80;;
35205;SDS011;46555;45.620;13.796;2022-07-23T11:04:59;13.90;;;12.52;;
35205;SDS011;46555;45.620;13.796;2022-07-23T11:07:25;14.57;;;12.80;;
35205;SDS011;46555;45.620;13.796;2022-07-23T11:09:51;12.93;;;11.25;;
35205;SDS011;46555;45.620;13.796;2022-07-23T11:17:36;22.30;;;10.23;;
35205;SDS011;46555;45.620;13.796;2022-07-23T11:20:22;8.68;;;7.78;;
35205;SDS011;46555;45.620;13.796;2022-07-23T11:22:54;12.95;;;7.82;;
35205;SDS011;46555;45.620;13.796;2022-07-23T11:27:55;9.55;;;7.63;;
35205;SDS011;46555;45.620;13.796;2022-07-23T11:35:32;17.17;;;8.80;;
35205;SDS011;46555;45.620;13.796;2022-07-23T11:38:06;8.73;;;7.03;;
35205;SDS011;46555;45.620;13.796;2022-07-23T11:40:33;9.52;;;8.52;;
35205;SDS011;46555;45.620;13.796;2022-07-23T11:43:01;11.13;;;8.10;;
35205;SDS011;46555;45.620;13.796;2022-07-23T11:45:30;10.20;;;7.57;;
35205;SDS011;46555;45.620;13.796;2022-07-23T11:47:58;13.32;;;10.35;;
35205;SDS011;46555;45.620;13.796;2022-07-23T11:50:24;12.38;;;10.52;;
35205;SDS011;46555;45.620;13.796;2022-07-23T11:52:51;16.80;;;9.85;;
35205;SDS011;46555;45.620;13.796;2022-07-23T11:55:17;18.27;;;11.77;;
35205;SDS011;46555;45.620;13.796;2022-07-23T11:57:44;13.27;;;11.73;;
35205;SDS011;46555;45.620;13.796;2022-07-23T12:00:20;12.95;;;11.45;;
35205;SDS011;46555;45.620;13.796;2022-07-23T12:02:52;16.63;;;12.13;;
35205;SDS011;46555;45.620;13.796;2022-07-23T12:05:24;13.40;;;11.55;;
35205;SDS011;46555;45.620;13.796;2022-07-23T12:07:52;17.52;;;11.77;;
35205;SDS011;46555;45.620;13.796;2022-07-23T12:12:48;23.30;;;10.25;;
35205;SDS011;46555;45.620;13.796;2022-07-23T12:15:18;15.07;;;10.38;;
35205;SDS011;46555;45.620;13.796;2022-07-23T12:17:47;11.85;;;8.70;;
35205;SDS011;46555;45.620;13.796;2022-07-23T12:20:24;11.40;;;8.55;;
35205;SDS011;46555;45.620;13.796;2022-07-23T12:22:52;7.25;;;5.75;;
35205;SDS011;46555;45.620;13.796;2022-07-23T12:25:22;5.72;;;4.68;;
35205;SDS011;46555;45.620;13.796;2022-07-23T12:30:40;6.63;;;4.80;;
35205;SDS011;46555;45.620;13.796;2022-07-23T12:33:06;14.07;;;6.40;;
35205;SDS011;46555;45.620;13.796;2022-07-23T12:35:38;7.85;;;5.25;;
35205;SDS011;46555;45.620;13.796;2022-07-23T12:38:11;6.20;;;5.47;;
35205;SDS011;46555;45.620;13.796;2022-07-23T12:43:17;8.60;;;5.10;;
35205;SDS011;46555;45.620;13.796;2022-07-23T12:45:48;10.48;;;5.38;;
35205;SDS011;46555;45.620;13.796;2022-07-23T12:55:58;8.00;;;5.72;;
35205;SDS011;46555;45.620;13.796;2022-07-23T12:58:25;6.95;;;5.72;;
35205;SDS011;46555;45.620;13.796;2022-07-23T13:00:52;8.35;;;6.10;;
35205;SDS011;46555;45.620;13.796;2022-07-23T13:05:51;15.82;;;7.75;;
35205;SDS011;46555;45.620;13.796;2022-07-23T13:08:17;9.55;;;6.80;;
35205;SDS011;46555;45.620;13.796;2022-07-23T13:10:43;11.80;;;7.50;;
35205;SDS011;46555;45.620;13.796;2022-07-23T13:13:12;11.68;;;7.72;;
35205;SDS011;46555;45.620;13.796;2022-07-23T13:15:38;9.93;;;7.45;;
35205;SDS011;46555;45.620;13.796;2022-07-23T13:18:03;8.75;;;7.30;;
35205;SDS011;46555;45.620;13.796;2022-07-23T13:20:29;17.30;;;6.85;;
35205;SDS011;46555;45.620;13.796;2022-07-23T13:22:57;12.07;;;6.72;;
35205;SDS011;46555;45.620;13.796;2022-07-23T13:25:23;18.73;;;7.10;;
35205;SDS011;46555;45.620;13.796;2022-07-23T13:27:49;15.93;;;6.63;;
35205;SDS011;46555;45.620;13.796;2022-07-23T13:30:14;11.57;;;6.10;;
35205;SDS011;46555;45.620;13.796;2022-07-23T13:32:40;11.10;;;5.75;;
35205;SDS011;46555;45.620;13.796;2022-07-23T13:35:08;10.10;;;5.82;;
35205;SDS011;46555;45.620;13.796;2022-07-23T13:37:34;8.40;;;5.70;;
35205;SDS011;46555;45.620;13.796;2022-07-23T13:40:00;7.45;;;5.28;;
35205;SDS011;46555;45.620;13.796;2022-07-23T13:42:26;11.02;;;5.47;;
35205;SDS011;46555;45.620;13.796;2022-07-23T13:44:52;6.45;;;5.38;;
35205;SDS011;46555;45.620;13.796;2022-07-23T13:47:18;8.70;;;5.50;;
35205;SDS011;46555;45.620;13.796;2022-07-23T13:49:43;9.57;;;5.18;;
35205;SDS011;46555;45.620;13.796;2022-07-23T13:52:09;9.98;;;5.00;;
35205;SDS011;46555;45.620;13.796;2022-07-23T13:54:35;5.65;;;4.90;;
35205;SDS011;46555;45.620;13.796;2022-07-23T13:57:01;9.57;;;5.32;;
35205;SDS011;46555;45.620;13.796;2022-07-23T13:59:26;8.40;;;4.95;;
35205;SDS011;46555;45.620;13.796;2022-07-23T14:01:53;8.63;;;4.55;;
35205;SDS011;46555;45.620;13.796;2022-07-23T14:04:19;14.48;;;5.38;;
35205;SDS011;46555;45.620;13.796;2022-07-23T14:06:45;17.85;;;5.32;;
35205;SDS011;46555;45.620;13.796;2022-07-23T14:09:11;6.38;;;4.65;;
35205;SDS011;46555;45.620;13.796;2022-07-23T14:11:37;9.48;;;4.90;;
35205;SDS011;46555;45.620;13.796;2022-07-23T14:14:04;4.93;;;3.63;;
35205;SDS011;46555;45.620;13.796;2022-07-23T14:16:30;8.73;;;4.70;;
35205;SDS011;46555;45.620;13.796;2022-07-23T14:18:56;5.97;;;4.75;;
35205;SDS011;46555;45.620;13.796;2022-07-23T14:21:22;9.60;;;4.68;;
35205;SDS011;46555;45.620;13.796;2022-07-23T14:23:47;10.07;;;4.88;;
35205;SDS011;46555;45.620;13.796;2022-07-23T14:26:13;8.25;;;4.88;;
35205;SDS011;46555;45.620;13.796;2022-07-23T14:28:39;8.68;;;5.00;;
35205;SDS011;46555;45.620;13.796;2022-07-23T14:31:04;14.20;;;4.75;;
35205;SDS011;46555;45.620;13.796;2022-07-23T14:33:30;11.13;;;5.70;;
35205;SDS011;46555;45.620;13.796;2022-07-23T14:35:56;5.38;;;3.95;;
35205;SDS011;46555;45.620;13.796;2022-07-23T14:38:23;7.43;;;4.43;;
35205;SDS011;46555;45.620;13.796;2022-07-23T14:40:49;6.95;;;4.10;;
35205;SDS011;46555;45.620;13.796;2022-07-23T14:43:15;8.23;;;4.40;;
35205;SDS011;46555;45.620;13.796;2022-07-23T14:45:41;12.77;;;4.80;;
35205;SDS011;46555;45.620;13.796;2022-07-23T14:48:07;9.45;;;4.65;;
35205;SDS011;46555;45.620;13.796;2022-07-23T14:50:33;7.53;;;4.80;;
35205;SDS011;46555;45.620;13.796;2022-07-23T14:52:59;6.95;;;5.00;;
35205;SDS011;46555;45.620;13.796;2022-07-23T14:55:25;6.40;;;4.22;;
35205;SDS011;46555;45.620;13.796;2022-07-23T14:57:56;4.55;;;3.78;;
35205;SDS011;46555;45.620;13.796;2022-07-23T15:00:21;13.43;;;4.13;;
35205;SDS011;46555;45.620;13.796;2022-07-23T15:02:47;6.20;;;4.05;;
35205;SDS011;46555;45.620;13.796;2022-07-23T15:05:13;7.97;;;4.47;;
35205;SDS011;46555;45.620;13.796;2022-07-23T15:07:38;11.80;;;4.93;;
35205;SDS011;46555;45.620;13.796;2022-07-23T15:10:04;10.70;;;5.18;;